Time;durP1;ratioP1;P1;durP2;ratioP2;P2;SDS_P1;SDS_P2;PMS_P1;PMS_P2;Temp;Humidity;BMP_temperature;BMP_pressure;BME280_temperature;BME280_humidity;BME280_pressure;Samples;Min_cycle;Max_cycle;Signal;HPM_P1;HPM_P2
2021/05/30 00:00:17;;;;;;;0.50;0.50;;;24.60;56.30;;;;;;5123770;28;20031;-43
2021/05/30 00:02:44;;;;;;;0.80;0.80;;;24.60;56.30;;;;;;5123617;28;20047;-43
2021/05/30 00:05:10;;;;;;;1.05;0.90;;;24.60;56.40;;;;;;5123321;28;20046;-44
2021/05/30 00:07:36;;;;;;;0.70;0.70;;;24.60;56.40;;;;;;5123373;28;20024;-43
2021/05/30 00:10:04;;;;;;;0.93;0.77;;;24.50;56.30;;;;;;5123714;28;20035;-42
2021/05/30 00:12:30;;;;;;;0.60;0.60;;;24.50;56.30;;;;;;5123735;28;20028;-42
2021/05/30 00:14:56;;;;;;;1.63;0.93;;;24.50;56.40;;;;;;5121911;28;20047;-43
2021/05/30 00:17:23;;;;;;;0.60;0.60;;;24.50;56.40;;;;;;5123657;28;20043;-44
2021/05/30 00:19:49;;;;;;;0.60;0.60;;;24.50;56.50;;;;;;5122220;28;20088;-43
2021/05/30 00:22:15;;;;;;;0.75;0.55;;;24.50;56.50;;;;;;5123669;28;20038;-43
2021/05/30 00:24:41;;;;;;;0.70;0.70;;;24.50;56.50;;;;;;5123037;28;20024;-42
2021/05/30 00:27:07;;;;;;;0.95;0.75;;;24.50;56.50;;;;;;5123492;28;20034;-43
2021/05/30 00:29:34;;;;;;;0.63;0.60;;;24.40;56.50;;;;;;5123509;28;20123;-47
2021/05/30 00:32:00;;;;;;;0.70;0.70;;;24.40;56.50;;;;;;5123739;28;20032;-42
2021/05/30 00:34:26;;;;;;;0.73;0.70;;;24.40;56.50;;;;;;5124061;28;20032;-43
2021/05/30 00:36:52;;;;;;;0.80;0.70;;;24.40;56.50;;;;;;5127946;28;20080;-43
2021/05/30 00:39:18;;;;;;;0.95;0.70;;;24.40;56.50;;;;;;5127672;28;20031;-44
2021/05/30 00:41:45;;;;;;;0.88;0.80;;;24.40;56.40;;;;;;5127704;27;20011;-43
2021/05/30 00:44:20;;;;;;;0.65;0.63;;;24.30;56.40;;;;;;5127434;28;20016;-43
2021/05/30 00:46:46;;;;;;;0.60;0.60;;;24.40;56.50;;;;;;5127607;28;20046;-42
2021/05/30 00:49:12;;;;;;;1.77;0.70;;;24.40;56.50;;;;;;5127644;28;20023;-43
2021/05/30 00:51:38;;;;;;;0.60;0.60;;;24.30;56.50;;;;;;5127731;28;20073;-43
2021/05/30 00:54:05;;;;;;;0.60;0.47;;;24.30;56.50;;;;;;5142411;27;20031;-43
2021/05/30 00:56:31;;;;;;;0.55;0.55;;;24.30;56.50;;;;;;5125745;28;20091;-42
2021/05/30 00:58:57;;;;;;;0.90;0.70;;;24.30;56.40;;;;;;5127270;28;20023;-42
2021/05/30 01:01:23;;;;;;;0.50;0.50;;;24.30;56.50;;;;;;5120564;28;20047;-43
2021/05/30 01:03:49;;;;;;;0.50;0.50;;;24.30;56.50;;;;;;5127115;28;20040;-43
2021/05/30 01:06:16;;;;;;;0.90;0.80;;;24.30;57.10;;;;;;5127236;28;20060;-42
2021/05/30 01:08:42;;;;;;;0.60;0.60;;;24.30;56.50;;;;;;5127082;28;20031;-42
2021/05/30 01:11:14;;;;;;;0.60;0.60;;;24.30;56.50;;;;;;5127129;28;20032;-44
2021/05/30 01:13:40;;;;;;;1.58;0.60;;;24.20;56.50;;;;;;5127261;28;20043;-46
2021/05/30 01:16:06;;;;;;;0.60;0.60;;;24.20;56.50;;;;;;5126852;28;20038;-43
2021/05/30 01:18:33;;;;;;;0.63;0.60;;;24.20;56.50;;;;;;5125739;28;20411;-45
2021/05/30 01:20:59;;;;;;;0.50;0.50;;;24.20;56.60;;;;;;5125682;28;20046;-42
2021/05/30 01:23:25;;;;;;;0.80;0.80;;;24.20;56.50;;;;;;5126570;28;20027;-43
2021/05/30 01:25:51;;;;;;;0.50;0.50;;;24.20;56.60;;;;;;5126613;28;20032;-45
2021/05/30 01:28:18;;;;;;;0.70;0.70;;;24.20;56.50;;;;;;5127123;28;20023;-43
2021/05/30 01:30:45;;;;;;;0.50;0.50;;;24.10;56.50;;;;;;5126650;28;20091;-43
2021/05/30 01:33:11;;;;;;;0.52;0.50;;;24.10;56.50;;;;;;5126833;28;20047;-43
2021/05/30 01:35:37;;;;;;;0.40;0.40;;;24.10;56.50;;;;;;5126655;28;20426;-43
2021/05/30 01:38:04;;;;;;;1.25;0.77;;;24.10;56.50;;;;;;5126755;28;20052;-43
2021/05/30 01:40:30;;;;;;;0.63;0.63;;;24.10;56.50;;;;;;5126819;28;20123;-44
2021/05/30 01:42:56;;;;;;;0.95;0.70;;;24.10;56.30;;;;;;5126792;27;20051;-43
2021/05/30 01:45:23;;;;;;;1.15;0.60;;;24.10;56.20;;;;;;5126338;28;20031;-43
2021/05/30 01:47:50;;;;;;;0.73;0.60;;;24.00;56.20;;;;;;5126634;28;20101;-42
2021/05/30 01:50:17;;;;;;;0.63;0.63;;;24.00;56.10;;;;;;5126406;28;20038;-43
2021/05/30 01:52:44;;;;;;;0.80;0.60;;;24.00;56.10;;;;;;5126301;28;20027;-41
2021/05/30 01:55:47;;;;;;;0.88;0.40;;;24.00;56.20;;;;;;5126035;28;20031;-42
2021/05/30 01:57:57;;;;;;;0.50;0.50;;;24.00;55.80;;;;;;5125549;27;20032;-43
2021/05/30 02:00:24;;;;;;;0.70;0.70;;;24.00;55.90;;;;;;5125844;28;20031;-43
2021/05/30 02:02:55;;;;;;;0.65;0.63;;;24.00;55.90;;;;;;5125836;28;20040;-43
2021/05/30 02:05:22;;;;;;;0.50;0.50;;;24.00;56.20;;;;;;5125749;28;20062;-42
2021/05/30 02:07:49;;;;;;;0.60;0.60;;;24.00;56.30;;;;;;5126481;28;20054;-43
2021/05/30 02:10:15;;;;;;;0.55;0.55;;;23.90;56.20;;;;;;5124772;28;20039;-43
2021/05/30 02:12:42;;;;;;;0.60;0.60;;;23.90;56.20;;;;;;5126198;28;20038;-43
2021/05/30 02:15:09;;;;;;;0.90;0.70;;;23.90;56.20;;;;;;5125957;28;20035;-43
2021/05/30 02:17:35;;;;;;;0.60;0.60;;;23.90;56.10;;;;;;5125795;28;20084;-43
2021/05/30 02:20:02;;;;;;;1.30;0.63;;;23.90;56.10;;;;;;5124562;28;20067;-42
2021/05/30 02:22:31;;;;;;;0.50;0.47;;;23.90;56.00;;;;;;5126087;28;20031;-42
2021/05/30 02:24:57;;;;;;;0.57;0.57;;;23.80;55.80;;;;;;5125589;28;20036;-44
2021/05/30 02:27:24;;;;;;;0.57;0.57;;;23.80;55.90;;;;;;5125540;28;20053;-43
2021/05/30 02:29:50;;;;;;;0.60;0.60;;;23.80;55.80;;;;;;5125773;28;20035;-43
2021/05/30 02:32:16;;;;;;;0.68;0.65;;;23.80;55.90;;;;;;5125638;28;20028;-42
2021/05/30 02:34:43;;;;;;;0.70;0.70;;;23.80;55.80;;;;;;5125616;28;20046;-42
2021/05/30 02:37:14;;;;;;;0.63;0.50;;;23.80;55.80;;;;;;5125555;28;20388;-43
2021/05/30 02:39:40;;;;;;;0.50;0.50;;;23.70;55.70;;;;;;5125406;28;20272;-43
2021/05/30 02:42:07;;;;;;;0.73;0.63;;;23.70;55.70;;;;;;5125541;28;20034;-44
2021/05/30 02:44:36;;;;;;;0.73;0.63;;;23.70;55.60;;;;;;5125537;28;20768;-44
2021/05/30 02:47:03;;;;;;;1.77;0.60;;;23.70;55.70;;;;;;5125315;28;20096;-42
2021/05/30 02:49:32;;;;;;;0.53;0.53;;;23.70;55.60;;;;;;5125598;28;20039;-45
2021/05/30 02:51:59;;;;;;;0.47;0.47;;;23.70;55.80;;;;;;5124868;28;20868;-43
2021/05/30 02:54:26;;;;;;;0.63;0.60;;;23.70;55.70;;;;;;5123660;28;20036;-43
2021/05/30 02:56:52;;;;;;;0.63;0.60;;;23.70;55.70;;;;;;5124240;28;20583;-43
2021/05/30 02:59:18;;;;;;;0.60;0.60;;;23.60;55.60;;;;;;5125204;28;20041;-44
2021/05/30 03:01:44;;;;;;;0.70;0.70;;;23.60;55.70;;;;;;5124686;28;20030;-43
2021/05/30 03:04:10;;;;;;;0.75;0.60;;;23.60;55.80;;;;;;5125095;28;20043;-44
2021/05/30 03:06:36;;;;;;;0.63;0.60;;;23.60;55.80;;;;;;5125012;28;20510;-43
2021/05/30 03:09:03;;;;;;;0.60;0.60;;;23.60;55.70;;;;;;5124794;28;20488;-43
2021/05/30 03:11:29;;;;;;;0.83;0.60;;;23.50;55.70;;;;;;5123623;28;20464;-42
2021/05/30 03:13:57;;;;;;;0.60;0.50;;;23.50;55.70;;;;;;5125182;28;20035;-43
2021/05/30 03:16:23;;;;;;;0.45;0.45;;;23.50;55.60;;;;;;5124406;28;20035;-43
2021/05/30 03:18:49;;;;;;;0.70;0.70;;;23.50;55.60;;;;;;5124975;28;20095;-43
2021/05/30 03:21:17;;;;;;;0.68;0.68;;;23.50;55.60;;;;;;5124864;28;20050;-43
2021/05/30 03:23:43;;;;;;;;;;;23.50;55.60;;;;;;5124953;28;20107;-43
2021/05/30 03:26:09;;;;;;;0.57;0.55;;;23.50;55.50;;;;;;5123538;28;19908;-42
2021/05/30 03:28:35;;;;;;;0.70;0.60;;;23.40;55.60;;;;;;5124663;28;20501;-43
2021/05/30 03:31:01;;;;;;;1.00;0.70;;;23.40;55.50;;;;;;5124560;28;20400;-42
2021/05/30 03:33:27;;;;;;;0.70;0.70;;;23.40;55.50;;;;;;5124816;28;20023;-45
2021/05/30 03:35:58;;;;;;;0.75;0.68;;;23.40;55.40;;;;;;5124635;28;20036;-44
2021/05/30 03:38:25;;;;;;;0.50;0.50;;;23.40;55.60;;;;;;5122993;28;20057;-46
2021/05/30 03:41:14;;;;;;;1.02;0.60;;;23.30;55.60;;;;;;5124626;28;20028;-43
2021/05/30 03:43:40;;;;;;;0.63;0.63;;;23.30;55.50;;;;;;5124023;28;20095;-43
2021/05/30 03:46:06;;;;;;;0.47;0.47;;;23.30;55.50;;;;;;5124354;28;20106;-43
2021/05/30 03:48:32;;;;;;;0.50;0.50;;;23.30;55.50;;;;;;5124137;28;20028;-44
2021/05/30 03:50:58;;;;;;;0.43;0.43;;;23.30;55.70;;;;;;5124292;28;20028;-42
2021/05/30 03:53:24;;;;;;;0.80;0.57;;;23.30;55.60;;;;;;5123519;28;20570;-43
2021/05/30 03:55:51;;;;;;;0.60;0.60;;;23.30;55.60;;;;;;5124240;28;20130;-42
2021/05/30 03:58:17;;;;;;;0.70;0.70;;;23.20;55.60;;;;;;5123997;28;20024;-42
2021/05/30 04:00:43;;;;;;;0.75;0.50;;;23.20;55.50;;;;;;5124211;27;20030;-44
2021/05/30 04:03:10;;;;;;;0.60;0.60;;;23.20;55.50;;;;;;5124062;28;20058;-46
2021/05/30 04:05:36;;;;;;;0.60;0.60;;;23.20;55.50;;;;;;5124130;28;20019;-43
2021/05/30 04:08:02;;;;;;;0.70;0.60;;;23.20;55.50;;;;;;5123778;28;20088;-42
2021/05/30 04:10:29;;;;;;;0.53;0.53;;;23.20;55.60;;;;;;5123301;28;20028;-42
2021/05/30 04:12:55;;;;;;;0.60;0.60;;;23.10;55.50;;;;;;5123573;28;20062;-43
2021/05/30 04:15:21;;;;;;;0.70;0.65;;;23.10;55.60;;;;;;5123695;28;20476;-43
2021/05/30 04:17:47;;;;;;;0.60;0.60;;;23.10;55.60;;;;;;5123799;28;20091;-43
2021/05/30 04:20:20;;;;;;;0.50;0.50;;;23.10;55.60;;;;;;5123684;28;20041;-43
2021/05/30 04:22:46;;;;;;;0.70;0.60;;;23.10;55.60;;;;;;5123619;28;20560;-42
2021/05/30 04:25:12;;;;;;;0.63;0.63;;;23.00;55.60;;;;;;5123529;28;20042;-43
2021/05/30 04:27:39;;;;;;;0.50;0.50;;;23.00;55.60;;;;;;5123504;28;20519;-42
2021/05/30 04:30:06;;;;;;;0.80;0.70;;;23.00;55.70;;;;;;5123790;28;20035;-44
2021/05/30 04:32:32;;;;;;;0.60;0.57;;;23.00;55.60;;;;;;5122136;28;20024;-42
2021/05/30 04:34:59;;;;;;;0.50;0.50;;;23.00;55.70;;;;;;5123630;28;20543;-43
2021/05/30 04:37:25;;;;;;;0.93;0.77;;;23.00;55.70;;;;;;5123361;28;20039;-42
2021/05/30 04:39:51;;;;;;;0.98;0.70;;;22.90;55.60;;;;;;5123531;28;20481;-43
2021/05/30 04:42:17;;;;;;;0.50;0.50;;;22.90;55.70;;;;;;5123601;28;20032;-43
2021/05/30 04:44:44;;;;;;;0.60;0.60;;;22.90;55.70;;;;;;5123580;28;20031;-47
2021/05/30 04:47:11;;;;;;;0.60;0.60;;;22.90;55.70;;;;;;5123021;28;20023;-42
2021/05/30 04:49:38;;;;;;;0.50;0.50;;;22.90;55.70;;;;;;5123289;28;20034;-43
2021/05/30 04:52:08;;;;;;;0.47;0.47;;;22.90;55.80;;;;;;5123538;28;20112;-42
2021/05/30 04:54:34;;;;;;;0.80;0.70;;;22.80;55.80;;;;;;5119794;28;20031;-42
2021/05/30 04:57:01;;;;;;;0.60;0.60;;;22.80;55.80;;;;;;5123390;28;20039;-44
2021/05/30 04:59:27;;;;;;;0.70;0.70;;;22.80;55.80;;;;;;5123109;28;20024;-43
2021/05/30 05:01:54;;;;;;;0.60;0.60;;;22.80;55.80;;;;;;5123323;28;20035;-42
2021/05/30 05:04:20;;;;;;;0.70;0.52;;;22.80;55.90;;;;;;5123109;28;20044;-43
2021/05/30 05:06:46;;;;;;;0.60;0.60;;;22.70;55.80;;;;;;5123209;28;20034;-42
2021/05/30 05:09:12;;;;;;;0.60;0.50;;;22.70;55.80;;;;;;5122897;28;20035;-43
2021/05/30 05:11:38;;;;;;;1.05;0.60;;;22.70;55.90;;;;;;5123403;28;20126;-42
2021/05/30 05:14:05;;;;;;;0.40;0.40;;;22.70;55.90;;;;;;5123068;28;20103;-44
2021/05/30 05:16:31;;;;;;;0.65;0.60;;;22.70;55.90;;;;;;5121748;28;20301;-43
2021/05/30 05:18:58;;;;;;;0.55;0.55;;;22.70;56.00;;;;;;5122863;28;20045;-42
2021/05/30 05:21:24;;;;;;;0.50;0.50;;;22.60;55.90;;;;;;5125855;28;20130;-42
2021/05/30 05:23:50;;;;;;;0.57;0.57;;;22.60;56.00;;;;;;5126653;28;20615;-43
2021/05/30 05:26:17;;;;;;;0.68;0.68;;;22.60;56.00;;;;;;5127039;27;20031;-42
2021/05/30 05:28:43;;;;;;;0.60;0.60;;;22.60;56.00;;;;;;5126699;28;20034;-42
2021/05/30 05:31:09;;;;;;;0.68;0.68;;;22.50;56.00;;;;;;5126860;28;20024;-44
2021/05/30 05:33:35;;;;;;;0.75;0.60;;;22.50;56.00;;;;;;5126968;28;20611;-43
2021/05/30 05:36:01;;;;;;;0.60;0.60;;;22.50;56.00;;;;;;5126680;28;20201;-42
2021/05/30 05:38:27;;;;;;;0.77;0.60;;;22.50;56.00;;;;;;5125063;28;20318;-44
2021/05/30 05:40:54;;;;;;;0.82;0.70;;;22.40;56.10;;;;;;5126679;28;20032;-42
2021/05/30 05:43:20;;;;;;;0.70;0.63;;;22.50;56.10;;;;;;5125459;28;20012;-43
2021/05/30 05:45:47;;;;;;;0.50;0.50;;;22.40;56.10;;;;;;5126504;28;20055;-42
2021/05/30 05:48:15;;;;;;;0.60;0.60;;;22.40;56.20;;;;;;5126454;28;20032;-43
2021/05/30 05:50:42;;;;;;;0.70;0.60;;;22.40;56.20;;;;;;5126173;28;20039;-43
2021/05/30 05:53:08;;;;;;;0.60;0.60;;;22.40;56.20;;;;;;5126049;28;20027;-42
2021/05/30 05:55:35;;;;;;;0.60;0.60;;;22.40;56.30;;;;;;5124602;28;20039;-43
2021/05/30 05:58:01;;;;;;;0.60;0.60;;;22.30;56.20;;;;;;5126360;28;20023;-44
2021/05/30 06:00:27;;;;;;;0.52;0.52;;;22.30;56.20;;;;;;5126146;28;20384;-42
2021/05/30 06:02:53;;;;;;;0.70;0.57;;;22.30;56.20;;;;;;5126004;28;20051;-44
2021/05/30 06:05:21;;;;;;;0.47;0.47;;;22.30;56.30;;;;;;5126294;28;20028;-43
2021/05/30 06:07:48;;;;;;;0.60;0.43;;;22.30;56.30;;;;;;5126067;28;20034;-43
2021/05/30 06:10:15;;;;;;;0.40;0.40;;;22.30;56.30;;;;;;5125671;28;20078;-42
2021/05/30 06:12:41;;;;;;;;;;;22.20;56.30;;;;;;5126538;28;20039;-46
2021/05/30 06:15:08;;;;;;;0.60;0.60;;;22.20;56.30;;;;;;5125872;28;19911;-45
2021/05/30 06:17:34;;;;;;;0.60;0.60;;;22.20;56.40;;;;;;5125274;28;20050;-49
2021/05/30 06:20:00;;;;;;;0.60;0.60;;;22.20;57.00;;;;;;5124451;28;20024;-42
2021/05/30 06:22:27;;;;;;;0.60;0.50;;;22.20;56.40;;;;;;5125804;28;20034;-43
2021/05/30 06:24:54;;;;;;;0.40;0.40;;;22.10;56.50;;;;;;5125577;28;20027;-42
2021/05/30 06:27:20;;;;;;;0.50;0.50;;;22.10;56.50;;;;;;5125707;28;20087;-42
2021/05/30 06:29:47;;;;;;;1.23;0.50;;;22.10;56.50;;;;;;5125506;28;20023;-43
2021/05/30 06:32:13;;;;;;;1.20;0.45;;;22.10;56.50;;;;;;5124812;28;20034;-43
2021/05/30 06:34:39;;;;;;;0.50;0.50;;;22.10;56.60;;;;;;5125351;28;20568;-43
2021/05/30 06:37:06;;;;;;;0.60;0.60;;;22.10;56.60;;;;;;5125388;28;20037;-45
2021/05/30 06:39:32;;;;;;;1.67;0.57;;;22.00;56.60;;;;;;5124723;28;20489;-42
2021/05/30 06:41:58;;;;;;;0.50;0.50;;;22.00;56.60;;;;;;5125363;28;20053;-42
2021/05/30 06:44:24;;;;;;;0.57;0.52;;;22.00;56.60;;;;;;5124896;28;20027;-42
2021/05/30 06:46:50;;;;;;;0.50;0.50;;;22.00;56.60;;;;;;5125283;27;20019;-42
2021/05/30 06:49:16;;;;;;;0.60;0.60;;;22.00;56.70;;;;;;5125078;28;20023;-41
2021/05/30 06:51:43;;;;;;;0.60;0.60;;;22.00;56.80;;;;;;5125303;28;20118;-42
2021/05/30 06:54:10;;;;;;;0.63;0.63;;;22.00;56.80;;;;;;5124635;28;20035;-42
2021/05/30 06:56:37;;;;;;;0.57;0.57;;;21.90;56.70;;;;;;5125100;28;20328;-42
2021/05/30 06:59:03;;;;;;;0.50;0.50;;;21.90;56.70;;;;;;5124762;28;20023;-42
2021/05/30 07:01:29;;;;;;;0.60;0.57;;;21.90;56.80;;;;;;5124516;28;20114;-43
2021/05/30 07:03:55;;;;;;;0.47;0.47;;;21.90;56.80;;;;;;5124830;28;20107;-45
2021/05/30 07:06:24;;;;;;;0.50;0.50;;;21.90;56.80;;;;;;5124665;28;20026;-43
2021/05/30 07:08:50;;;;;;;0.55;0.50;;;21.80;56.80;;;;;;5124946;27;20020;-43
2021/05/30 07:11:17;;;;;;;0.50;0.50;;;21.80;56.90;;;;;;5124381;28;20113;-42
2021/05/30 07:13:43;;;;;;;0.50;0.50;;;21.80;56.90;;;;;;5124686;28;20028;-43
2021/05/30 07:16:09;;;;;;;0.40;0.40;;;21.80;57.00;;;;;;5124689;28;20039;-42
2021/05/30 07:18:35;;;;;;;0.57;0.57;;;21.80;57.50;;;;;;5124695;28;20052;-43
2021/05/30 07:21:01;;;;;;;0.60;0.60;;;21.70;56.90;;;;;;5124193;28;20036;-43
2021/05/30 07:23:28;;;;;;;0.70;0.45;;;21.80;57.00;;;;;;5124491;28;20035;-43
2021/05/30 07:25:55;;;;;;;0.45;0.45;;;21.70;57.00;;;;;;5124045;28;20027;-44
2021/05/30 07:28:21;;;;;;;0.45;0.43;;;21.70;57.00;;;;;;5123145;28;20503;-45
2021/05/30 07:30:48;;;;;;;0.50;0.50;;;21.70;57.60;;;;;;5124434;28;20031;-42
2021/05/30 07:33:14;;;;;;;;;;;21.70;57.00;;;;;;5124837;28;20072;-43
2021/05/30 07:35:40;;;;;;;0.80;0.80;;;21.70;57.10;;;;;;5123949;28;19916;-43
2021/05/30 07:38:06;;;;;;;0.70;0.65;;;21.60;57.10;;;;;;5124364;28;20035;-42
2021/05/30 07:40:33;;;;;;;0.50;0.50;;;21.60;57.10;;;;;;5123973;28;20099;-43
2021/05/30 07:43:00;;;;;;;0.60;0.60;;;21.60;57.20;;;;;;5124059;28;20019;-43
2021/05/30 07:45:27;;;;;;;0.52;0.52;;;21.60;57.20;;;;;;5123911;28;20035;-42
2021/05/30 07:47:53;;;;;;;0.50;0.50;;;21.60;57.20;;;;;;5124038;27;20358;-43
2021/05/30 07:50:20;;;;;;;0.60;0.60;;;21.50;57.20;;;;;;5124153;28;20506;-44
2021/05/30 07:52:46;;;;;;;0.43;0.43;;;21.50;57.20;;;;;;5123737;28;20028;-42
2021/05/30 07:55:12;;;;;;;0.52;0.50;;;21.50;57.20;;;;;;5123501;28;20044;-42
2021/05/30 07:57:39;;;;;;;0.50;0.50;;;21.50;57.30;;;;;;5122695;28;20019;-43
2021/05/30 08:00:08;;;;;;;0.50;0.50;;;21.50;57.40;;;;;;5123868;28;20027;-43
2021/05/30 08:02:35;;;;;;;0.63;0.60;;;21.50;57.40;;;;;;5122205;28;20042;-43
2021/05/30 08:05:02;;;;;;;0.60;0.60;;;21.50;57.40;;;;;;5123398;28;20051;-44
2021/05/30 08:07:28;;;;;;;0.60;0.60;;;21.40;57.40;;;;;;5124026;28;20102;-43
2021/05/30 08:09:54;;;;;;;0.60;0.60;;;21.40;57.40;;;;;;5123221;28;20619;-45
2021/05/30 08:12:21;;;;;;;0.50;0.50;;;21.40;57.40;;;;;;5123616;28;20059;-43
2021/05/30 08:14:47;;;;;;;0.50;0.50;;;21.40;57.40;;;;;;5123354;28;20034;-42
2021/05/30 08:17:13;;;;;;;0.73;0.60;;;21.40;57.50;;;;;;5123444;28;20441;-43
2021/05/30 08:19:39;;;;;;;0.90;0.60;;;21.30;57.40;;;;;;5122174;28;20503;-42
2021/05/30 08:22:05;;;;;;;0.40;0.40;;;21.30;57.50;;;;;;5123540;28;20059;-44
2021/05/30 08:24:32;;;;;;;0.50;0.50;;;21.30;57.50;;;;;;5123536;28;20052;-42
2021/05/30 08:26:58;;;;;;;0.93;0.70;;;21.30;57.60;;;;;;5123400;28;20032;-43
2021/05/30 08:29:24;;;;;;;1.77;0.50;;;21.30;57.60;;;;;;5123513;28;20028;-42
2021/05/30 08:31:52;;;;;;;0.60;0.60;;;21.20;57.60;;;;;;5123660;28;20032;-42
2021/05/30 08:34:18;;;;;;;;;;;21.30;57.60;;;;;;5123827;28;20256;-43
2021/05/30 08:36:44;;;;;;;0.60;0.50;;;21.30;57.60;;;;;;5123250;28;19912;-43
2021/05/30 08:39:10;;;;;;;0.60;0.60;;;21.20;57.60;;;;;;5123581;28;20035;-45
2021/05/30 08:41:37;;;;;;;0.77;0.50;;;21.20;57.70;;;;;;5122947;28;20838;-43
2021/05/30 08:44:03;;;;;;;0.50;0.50;;;21.20;57.70;;;;;;5123496;28;20077;-43
2021/05/30 08:46:30;;;;;;;0.60;0.60;;;21.20;57.70;;;;;;5122839;28;20027;-43
2021/05/30 08:48:57;;;;;;;0.47;0.47;;;21.20;57.70;;;;;;5123417;28;20073;-44
2021/05/30 08:51:24;;;;;;;0.50;0.50;;;21.10;57.70;;;;;;5122021;28;20115;-46
2021/05/30 08:53:50;;;;;;;;;;;21.20;57.80;;;;;;5123556;28;20106;-47
2021/05/30 08:56:17;;;;;;;0.63;0.50;;;21.10;58.30;;;;;;5125215;28;19918;-43
2021/05/30 08:58:50;;;;;;;0.50;0.50;;;21.10;57.80;;;;;;5126149;28;20854;-42
2021/05/30 09:01:17;;;;;;;0.60;0.60;;;21.10;57.90;;;;;;5127275;28;20035;-43
2021/05/30 09:04:08;;;;;;;1.30;0.45;;;21.10;57.90;;;;;;5127185;28;20322;-45
2021/05/30 09:06:39;;;;;;;0.50;0.50;;;21.10;57.90;;;;;;5127059;27;20065;-43
2021/05/30 09:09:08;;;;;;;0.60;0.60;;;21.10;57.90;;;;;;5127216;28;20023;-43
2021/05/30 09:11:38;;;;;;;0.70;0.60;;;21.00;57.90;;;;;;5126684;28;20027;-44
2021/05/30 09:14:05;;;;;;;0.60;0.60;;;21.00;57.90;;;;;;5127095;28;20087;-43
2021/05/30 09:16:50;;;;;;;0.40;0.40;;;21.00;58.00;;;;;;5126935;28;20531;-45
2021/05/30 09:19:50;;;;;;;0.50;0.50;;;21.00;58.00;;;;;;5127251;28;20020;-42
2021/05/30 09:22:17;;;;;;;0.50;0.50;;;21.00;58.00;;;;;;5127198;28;20032;-46
2021/05/30 09:24:52;;;;;;;3.00;0.60;;;21.00;58.10;;;;;;5126854;27;20028;-42
2021/05/30 09:27:19;;;;;;;0.52;0.50;;;21.00;58.10;;;;;;5126810;28;20422;-42
2021/05/30 09:29:45;;;;;;;0.40;0.40;;;20.90;58.00;;;;;;5127063;28;20131;-43
2021/05/30 09:32:11;;;;;;;0.60;0.60;;;20.90;58.10;;;;;;5126757;28;20035;-42
2021/05/30 09:34:38;;;;;;;0.52;0.40;;;20.90;58.10;;;;;;5126798;28;20035;-42
2021/05/30 09:37:06;;;;;;;0.85;0.40;;;20.90;58.10;;;;;;5126365;28;20034;-43
2021/05/30 09:39:41;;;;;;;;;;;20.90;58.10;;;;;;5127050;28;20038;-42
2021/05/30 09:42:33;;;;;;;0.40;0.40;;;20.80;58.10;;;;;;5126699;28;19914;-43
2021/05/30 09:45:10;;;;;;;0.47;0.47;;;20.80;58.10;;;;;;5126905;28;20031;-43
2021/05/30 09:47:38;;;;;;;0.73;0.30;;;20.80;58.20;;;;;;5126313;28;20028;-42
2021/05/30 09:50:05;;;;;;;0.65;0.60;;;20.80;58.20;;;;;;5126854;28;20027;-44
2021/05/30 09:52:51;;;;;;;0.82;0.57;;;20.80;58.20;;;;;;5126443;28;20020;-43
2021/05/30 09:55:22;;;;;;;0.52;0.40;;;20.80;58.30;;;;;;5123580;28;20027;-43
2021/05/30 09:58:15;;;;;;;0.43;0.43;;;20.80;58.30;;;;;;5126117;28;20027;-44
2021/05/30 10:00:45;;;;;;;0.55;0.55;;;20.80;58.30;;;;;;5126423;28;20713;-45
2021/05/30 10:03:11;;;;;;;0.40;0.40;;;20.70;58.30;;;;;;5126161;28;20078;-42
2021/05/30 10:05:37;;;;;;;0.50;0.50;;;20.70;58.30;;;;;;5126246;28;20028;-44
2021/05/30 10:08:04;;;;;;;0.43;0.40;;;20.70;58.40;;;;;;5124682;28;20763;-43
2021/05/30 10:10:31;;;;;;;0.70;0.50;;;20.70;58.40;;;;;;5126019;27;20024;-42
2021/05/30 10:12:57;;;;;;;0.37;0.37;;;20.70;58.50;;;;;;5126150;28;20039;-43
2021/05/30 10:15:23;;;;;;;0.30;0.30;;;20.70;58.40;;;;;;5124421;28;20288;-45
2021/05/30 10:17:52;;;;;;;0.35;0.35;;;20.70;58.40;;;;;;5125827;28;20028;-42
2021/05/30 10:20:20;;;;;;;0.52;0.38;;;20.70;58.50;;;;;;5126334;28;20380;-46
2021/05/30 10:22:54;;;;;;;0.40;0.40;;;20.60;58.50;;;;;;5125919;28;20024;-42
2021/05/30 10:25:30;;;;;;;0.47;0.47;;;20.60;58.50;;;;;;5124462;28;20049;-42
2021/05/30 10:28:17;;;;;;;0.40;0.40;;;20.60;58.50;;;;;;5120864;28;20032;-43
2021/05/30 10:30:50;;;;;;;0.40;0.40;;;20.60;58.60;;;;;;5105517;28;20115;-43
2021/05/30 10:33:24;;;;;;;0.43;0.40;;;20.60;58.60;;;;;;5105186;28;20024;-43
2021/05/30 10:35:53;;;;;;;0.30;0.30;;;20.60;58.60;;;;;;5105462;28;20070;-42
2021/05/30 10:38:39;;;;;;;0.32;0.30;;;20.60;58.60;;;;;;5105334;28;20047;-43
2021/05/30 10:41:23;;;;;;;0.40;0.40;;;20.50;58.60;;;;;;5123471;28;20035;-43
2021/05/30 10:43:50;;;;;;;0.95;0.32;;;20.50;58.60;;;;;;5103963;28;20020;-43
2021/05/30 10:46:22;;;;;;;0.50;0.30;;;20.50;58.70;;;;;;5105303;28;20032;-43
2021/05/30 10:49:08;;;;;;;0.50;0.50;;;20.50;58.70;;;;;;5115611;28;20028;-43
2021/05/30 10:51:49;;;;;;;0.80;0.40;;;20.50;58.70;;;;;;5125506;28;20095;-42
2021/05/30 10:54:15;;;;;;;1.17;0.45;;;20.50;58.80;;;;;;5125296;28;20024;-44
2021/05/30 10:56:47;;;;;;;0.38;0.38;;;20.50;58.70;;;;;;5123714;28;20036;-43
2021/05/30 10:59:15;;;;;;;0.30;0.30;;;20.50;58.80;;;;;;5124881;28;20024;-43
2021/05/30 11:01:44;;;;;;;0.35;0.35;;;20.40;58.70;;;;;;5124964;28;20123;-42
2021/05/30 11:04:30;;;;;;;1.58;0.30;;;20.40;58.70;;;;;;5125034;28;20151;-43
2021/05/30 11:07:19;;;;;;;0.32;0.32;;;20.40;59.30;;;;;;5124953;28;20027;-43
2021/05/30 11:09:51;;;;;;;0.47;0.40;;;20.40;58.70;;;;;;5119151;28;20032;-42
2021/05/30 11:12:33;;;;;;;0.40;0.40;;;20.40;58.80;;;;;;5125013;28;20038;-42
2021/05/30 11:15:09;;;;;;;0.52;0.38;;;20.40;58.70;;;;;;5124991;28;20031;-42
2021/05/30 11:18:05;;;;;;;0.38;0.30;;;20.40;58.80;;;;;;5124401;27;20038;-42
2021/05/30 11:20:40;;;;;;;0.28;0.28;;;20.30;58.80;;;;;;5115853;28;20028;-43
2021/05/30 11:23:13;;;;;;;0.35;0.30;;;20.30;58.80;;;;;;5124641;28;20118;-42
2021/05/30 11:25:47;;;;;;;1.50;0.30;;;20.30;58.90;;;;;;5124449;28;20024;-42
2021/05/30 11:28:14;;;;;;;0.30;0.30;;;20.30;58.80;;;;;;5124450;28;20028;-42
2021/05/30 11:30:59;;;;;;;0.30;0.30;;;20.30;58.90;;;;;;5124527;28;20024;-45
2021/05/30 11:33:25;;;;;;;0.73;0.40;;;20.30;58.90;;;;;;5124619;28;20042;-43
2021/05/30 11:35:56;;;;;;;0.57;0.43;;;20.30;58.90;;;;;;5124480;28;20031;-42
2021/05/30 11:38:36;;;;;;;0.40;0.40;;;20.30;58.90;;;;;;5124187;28;20038;-45
2021/05/30 11:41:13;;;;;;;0.45;0.30;;;20.20;58.90;;;;;;5124234;28;20095;-42
2021/05/30 11:43:40;;;;;;;0.30;0.30;;;20.20;58.90;;;;;;5124290;28;20023;-42
2021/05/30 11:46:13;;;;;;;0.38;0.30;;;20.20;58.90;;;;;;5122987;28;20031;-42
2021/05/30 11:48:42;;;;;;;0.30;0.30;;;20.20;59.00;;;;;;5123848;28;20034;-43
2021/05/30 11:51:08;;;;;;;0.32;0.32;;;20.20;59.00;;;;;;5124472;28;20034;-43
2021/05/30 11:53:35;;;;;;;0.25;0.25;;;20.20;59.00;;;;;;5123989;28;20028;-43
2021/05/30 11:56:05;;;;;;;0.25;0.25;;;20.20;59.00;;;;;;5122524;28;20065;-43
2021/05/30 11:58:32;;;;;;;0.30;0.30;;;20.20;59.00;;;;;;5123772;27;20080;-43
2021/05/30 12:01:02;;;;;;;0.40;0.40;;;20.20;59.10;;;;;;5123937;28;20087;-43
2021/05/30 12:03:28;;;;;;;0.30;0.30;;;20.20;59.00;;;;;;5123917;28;20062;-43
2021/05/30 12:06:01;;;;;;;0.90;0.30;;;20.20;59.00;;;;;;5124069;28;20034;-42
2021/05/30 12:08:30;;;;;;;0.35;0.30;;;20.10;59.00;;;;;;5123637;28;20043;-43
2021/05/30 12:11:01;;;;;;;0.63;0.40;;;20.20;59.10;;;;;;5122028;28;20130;-43
2021/05/30 12:13:37;;;;;;;0.63;0.50;;;20.20;59.10;;;;;;5122610;28;20019;-42
2021/05/30 12:16:14;;;;;;;0.38;0.38;;;20.10;59.10;;;;;;5123884;28;20040;-43
2021/05/30 12:18:57;;;;;;;0.65;0.40;;;20.20;59.10;;;;;;5123704;28;20816;-43
2021/05/30 12:21:25;;;;;;;0.35;0.28;;;20.20;59.10;;;;;;5139468;27;20046;-43
2021/05/30 12:23:51;;;;;;;0.28;0.28;;;20.20;59.10;;;;;;5123733;28;20024;-43
2021/05/30 12:26:17;;;;;;;0.50;0.30;;;20.10;59.00;;;;;;5123314;28;20400;-43
2021/05/30 12:28:44;;;;;;;0.30;0.30;;;20.20;59.10;;;;;;5122325;28;20032;-45
2021/05/30 12:31:11;;;;;;;0.20;0.20;;;20.20;59.10;;;;;;5122900;28;20045;-42
2021/05/30 12:34:01;;;;;;;0.30;0.30;;;20.20;59.10;;;;;;5122276;28;20090;-43
2021/05/30 12:36:46;;;;;;;0.45;0.22;;;20.20;59.10;;;;;;5123159;28;20061;-44
2021/05/30 12:39:13;;;;;;;0.30;0.30;;;20.20;59.10;;;;;;5123480;28;20016;-44
2021/05/30 12:41:46;;;;;;;0.70;0.40;;;20.20;59.10;;;;;;5122838;28;20090;-42
2021/05/30 12:44:14;;;;;;;0.65;0.30;;;20.20;59.10;;;;;;5123385;28;20070;-42
2021/05/30 12:46:52;;;;;;;0.60;0.30;;;20.20;59.10;;;;;;5123615;28;20062;-44
2021/05/30 12:49:18;;;;;;;0.30;0.30;;;20.10;59.10;;;;;;5123153;28;20068;-41
2021/05/30 12:52:07;;;;;;;0.38;0.30;;;20.20;59.10;;;;;;5123647;28;20031;-44
2021/05/30 12:54:36;;;;;;;0.65;0.30;;;20.20;59.10;;;;;;5122644;28;20078;-42